sensor_id;sensor_type;location;lat;lon;timestamp;P1;durP1;ratioP1;P2;durP2;ratioP2
54923;SDS011;40825;52.270;20.984;2023-05-25T00:00:26;22.00;;;14.50;;
54923;SDS011;40825;52.270;20.984;2023-05-25T00:03:13;25.60;;;15.50;;
54923;SDS011;40825;52.270;20.984;2023-05-25T00:05:39;23.40;;;14.50;;
54923;SDS011;40825;52.270;20.984;2023-05-25T00:08:05;26.20;;;15.20;;
54923;SDS011;40825;52.270;20.984;2023-05-25T00:10:30;25.70;;;14.60;;
54923;SDS011;40825;52.270;20.984;2023-05-25T00:12:56;23.70;;;14.10;;
54923;SDS011;40825;52.270;20.984;2023-05-25T00:15:21;26.20;;;14.10;;
54923;SDS011;40825;52.270;20.984;2023-05-25T00:17:47;25.60;;;13.80;;
54923;SDS011;40825;52.270;20.984;2023-05-25T00:20:13;25.60;;;14.10;;
54923;SDS011;40825;52.270;20.984;2023-05-25T00:22:39;23.80;;;14.30;;
54923;SDS011;40825;52.270;20.984;2023-05-25T00:25:09;24.10;;;14.20;;
54923;SDS011;40825;52.270;20.984;2023-05-25T00:27:35;25.10;;;15.40;;
54923;SDS011;40825;52.270;20.984;2023-05-25T00:30:01;30.20;;;14.70;;
54923;SDS011;40825;52.270;20.984;2023-05-25T00:32:26;28.00;;;15.20;;
54923;SDS011;40825;52.270;20.984;2023-05-25T00:34:52;29.40;;;16.40;;
54923;SDS011;40825;52.270;20.984;2023-05-25T00:37:19;26.20;;;14.80;;
54923;SDS011;40825;52.270;20.984;2023-05-25T00:39:44;27.40;;;16.10;;
54923;SDS011;40825;52.270;20.984;2023-05-25T00:42:09;27.70;;;16.80;;
54923;SDS011;40825;52.270;20.984;2023-05-25T00:44:35;27.90;;;16.10;;
54923;SDS011;40825;52.270;20.984;2023-05-25T00:47:01;29.50;;;16.70;;
54923;SDS011;40825;52.270;20.984;2023-05-25T00:49:35;30.10;;;16.80;;
54923;SDS011;40825;52.270;20.984;2023-05-25T00:52:00;28.60;;;16.70;;
54923;SDS011;40825;52.270;20.984;2023-05-25T00:54:27;30.30;;;16.30;;
54923;SDS011;40825;52.270;20.984;2023-05-25T00:56:58;30.30;;;16.70;;
54923;SDS011;40825;52.270;20.984;2023-05-25T00:59:33;32.80;;;16.70;;
54923;SDS011;40825;52.270;20.984;2023-05-25T01:02:08;32.00;;;17.60;;
54923;SDS011;40825;52.270;20.984;2023-05-25T01:04:37;33.10;;;18.00;;
54923;SDS011;40825;52.270;20.984;2023-05-25T01:07:10;32.30;;;18.30;;
54923;SDS011;40825;52.270;20.984;2023-05-25T01:09:40;31.70;;;16.80;;
54923;SDS011;40825;52.270;20.984;2023-05-25T01:12:09;36.60;;;18.10;;
54923;SDS011;40825;52.270;20.984;2023-05-25T01:14:37;38.50;;;19.20;;
54923;SDS011;40825;52.270;20.984;2023-05-25T01:17:07;34.40;;;17.30;;
54923;SDS011;40825;52.270;20.984;2023-05-25T01:19:34;39.20;;;18.30;;
54923;SDS011;40825;52.270;20.984;2023-05-25T01:22:05;33.00;;;17.60;;
54923;SDS011;40825;52.270;20.984;2023-05-25T01:24:52;38.00;;;18.30;;
54923;SDS011;40825;52.270;20.984;2023-05-25T01:27:25;34.90;;;17.90;;
54923;SDS011;40825;52.270;20.984;2023-05-25T01:30:00;39.70;;;18.90;;
54923;SDS011;40825;52.270;20.984;2023-05-25T01:32:27;38.60;;;19.40;;
54923;SDS011;40825;52.270;20.984;2023-05-25T01:34:53;41.90;;;20.10;;
54923;SDS011;40825;52.270;20.984;2023-05-25T01:37:20;37.70;;;18.80;;
54923;SDS011;40825;52.270;20.984;2023-05-25T01:39:49;41.40;;;19.90;;
54923;SDS011;40825;52.270;20.984;2023-05-25T01:42:14;39.00;;;18.60;;
54923;SDS011;40825;52.270;20.984;2023-05-25T01:44:41;43.70;;;20.20;;
54923;SDS011;40825;52.270;20.984;2023-05-25T01:52:42;44.60;;;20.10;;
54923;SDS011;40825;52.270;20.984;2023-05-25T01:55:16;44.70;;;19.80;;
54923;SDS011;40825;52.270;20.984;2023-05-25T01:57:44;45.70;;;21.00;;
54923;SDS011;40825;52.270;20.984;2023-05-25T02:00:13;43.70;;;18.30;;
54923;SDS011;40825;52.270;20.984;2023-05-25T02:02:43;46.80;;;19.90;;
54923;SDS011;40825;52.270;20.984;2023-05-25T02:05:10;48.90;;;22.10;;
54923;SDS011;40825;52.270;20.984;2023-05-25T02:07:37;50.00;;;22.00;;
54923;SDS011;40825;52.270;20.984;2023-05-25T02:10:02;47.70;;;20.10;;
54923;SDS011;40825;52.270;20.984;2023-05-25T02:12:28;44.90;;;20.60;;
54923;SDS011;40825;52.270;20.984;2023-05-25T02:14:53;43.80;;;20.30;;
54923;SDS011;40825;52.270;20.984;2023-05-25T02:17:19;42.00;;;20.30;;
54923;SDS011;40825;52.270;20.984;2023-05-25T02:19:45;45.30;;;20.20;;
54923;SDS011;40825;52.270;20.984;2023-05-25T02:22:12;41.90;;;20.70;;
54923;SDS011;40825;52.270;20.984;2023-05-25T02:24:38;43.30;;;20.60;;
54923;SDS011;40825;52.270;20.984;2023-05-25T02:27:04;41.90;;;20.70;;
54923;SDS011;40825;52.270;20.984;2023-05-25T02:29:31;41.40;;;19.60;;
54923;SDS011;40825;52.270;20.984;2023-05-25T02:31:57;40.90;;;19.50;;
54923;SDS011;40825;52.270;20.984;2023-05-25T02:34:23;39.20;;;19.80;;
54923;SDS011;40825;52.270;20.984;2023-05-25T02:36:48;39.60;;;20.40;;
54923;SDS011;40825;52.270;20.984;2023-05-25T02:39:15;38.30;;;19.50;;
54923;SDS011;40825;52.270;20.984;2023-05-25T02:41:40;38.50;;;19.40;;
54923;SDS011;40825;52.270;20.984;2023-05-25T02:44:07;39.00;;;19.90;;
54923;SDS011;40825;52.270;20.984;2023-05-25T02:46:32;36.40;;;20.30;;
54923;SDS011;40825;52.270;20.984;2023-05-25T02:48:58;40.70;;;20.30;;
54923;SDS011;40825;52.270;20.984;2023-05-25T02:51:25;37.00;;;18.10;;
54923;SDS011;40825;52.270;20.984;2023-05-25T02:53:51;38.60;;;20.30;;
54923;SDS011;40825;52.270;20.984;2023-05-25T02:56:17;35.50;;;19.90;;
54923;SDS011;40825;52.270;20.984;2023-05-25T02:58:42;35.80;;;17.20;;
54923;SDS011;40825;52.270;20.984;2023-05-25T03:01:08;32.10;;;18.30;;
54923;SDS011;40825;52.270;20.984;2023-05-25T03:03:35;35.70;;;18.10;;
54923;SDS011;40825;52.270;20.984;2023-05-25T03:06:01;34.80;;;19.60;;
54923;SDS011;40825;52.270;20.984;2023-05-25T03:08:28;33.80;;;17.70;;
54923;SDS011;40825;52.270;20.984;2023-05-25T03:10:54;34.10;;;19.30;;
54923;SDS011;40825;52.270;20.984;2023-05-25T03:13:20;33.90;;;19.00;;
54923;SDS011;40825;52.270;20.984;2023-05-25T03:15:45;32.20;;;18.30;;
54923;SDS011;40825;52.270;20.984;2023-05-25T03:18:11;32.60;;;17.90;;
54923;SDS011;40825;52.270;20.984;2023-05-25T03:20:37;37.50;;;18.90;;
54923;SDS011;40825;52.270;20.984;2023-05-25T03:23:02;37.50;;;19.70;;
54923;SDS011;40825;52.270;20.984;2023-05-25T03:25:28;32.70;;;17.50;;
54923;SDS011;40825;52.270;20.984;2023-05-25T03:27:53;33.90;;;18.80;;
54923;SDS011;40825;52.270;20.984;2023-05-25T03:30:20;33.10;;;18.80;;
54923;SDS011;40825;52.270;20.984;2023-05-25T03:32:46;33.10;;;18.70;;
54923;SDS011;40825;52.270;20.984;2023-05-25T03:35:11;34.40;;;17.80;;
54923;SDS011;40825;52.270;20.984;2023-05-25T03:37:37;38.90;;;19.40;;
54923;SDS011;40825;52.270;20.984;2023-05-25T03:40:02;35.00;;;18.90;;
54923;SDS011;40825;52.270;20.984;2023-05-25T03:42:28;32.70;;;18.10;;
54923;SDS011;40825;52.270;20.984;2023-05-25T03:44:54;33.90;;;17.80;;
54923;SDS011;40825;52.270;20.984;2023-05-25T03:47:20;32.30;;;18.00;;
54923;SDS011;40825;52.270;20.984;2023-05-25T03:49:45;35.20;;;18.70;;
54923;SDS011;40825;52.270;20.984;2023-05-25T03:52:11;33.60;;;17.90;;
54923;SDS011;40825;52.270;20.984;2023-05-25T03:54:36;34.30;;;18.20;;
54923;SDS011;40825;52.270;20.984;2023-05-25T03:57:01;37.30;;;19.00;;
54923;SDS011;40825;52.270;20.984;2023-05-25T03:59:28;36.40;;;19.10;;
54923;SDS011;40825;52.270;20.984;2023-05-25T04:01:53;37.30;;;18.40;;
54923;SDS011;40825;52.270;20.984;2023-05-25T04:04:19;34.40;;;19.90;;
54923;SDS011;40825;52.270;20.984;2023-05-25T04:06:45;34.00;;;18.70;;
54923;SDS011;40825;52.270;20.984;2023-05-25T04:09:13;37.60;;;21.30;;
54923;SDS011;40825;52.270;20.984;2023-05-25T04:11:39;37.80;;;19.20;;
54923;SDS011;40825;52.270;20.984;2023-05-25T04:14:05;33.50;;;18.30;;
54923;SDS011;40825;52.270;20.984;2023-05-25T04:16:31;36.30;;;20.80;;
54923;SDS011;40825;52.270;20.984;2023-05-25T04:18:56;35.50;;;19.40;;
54923;SDS011;40825;52.270;20.984;2023-05-25T04:21:22;37.60;;;19.00;;
54923;SDS011;40825;52.270;20.984;2023-05-25T04:23:47;36.70;;;19.50;;
54923;SDS011;40825;52.270;20.984;2023-05-25T04:26:13;36.30;;;19.60;;
54923;SDS011;40825;52.270;20.984;2023-05-25T04:28:40;33.90;;;17.80;;
54923;SDS011;40825;52.270;20.984;2023-05-25T04:31:06;38.60;;;18.20;;
54923;SDS011;40825;52.270;20.984;2023-05-25T04:33:33;33.60;;;18.20;;
54923;SDS011;40825;52.270;20.984;2023-05-25T04:36:03;36.80;;;19.60;;
54923;SDS011;40825;52.270;20.984;2023-05-25T04:38:29;33.20;;;18.50;;
54923;SDS011;40825;52.270;20.984;2023-05-25T04:40:57;34.40;;;18.60;;
54923;SDS011;40825;52.270;20.984;2023-05-25T04:43:23;38.00;;;19.00;;
54923;SDS011;40825;52.270;20.984;2023-05-25T04:45:50;33.80;;;19.00;;
54923;SDS011;40825;52.270;20.984;2023-05-25T04:48:16;37.30;;;19.60;;
54923;SDS011;40825;52.270;20.984;2023-05-25T04:50:42;32.60;;;18.10;;
54923;SDS011;40825;52.270;20.984;2023-05-25T04:53:07;34.20;;;17.30;;
54923;SDS011;40825;52.270;20.984;2023-05-25T04:55:33;34.60;;;18.50;;
54923;SDS011;40825;52.270;20.984;2023-05-25T04:57:59;35.40;;;17.50;;
54923;SDS011;40825;52.270;20.984;2023-05-25T05:00:25;35.10;;;18.10;;
54923;SDS011;40825;52.270;20.984;2023-05-25T05:02:53;43.40;;;18.10;;
54923;SDS011;40825;52.270;20.984;2023-05-25T05:05:20;42.50;;;17.80;;
54923;SDS011;40825;52.270;20.984;2023-05-25T05:07:46;56.40;;;18.80;;
54923;SDS011;40825;52.270;20.984;2023-05-25T05:10:12;44.90;;;17.40;;
54923;SDS011;40825;52.270;20.984;2023-05-25T05:12:37;38.80;;;18.50;;
54923;SDS011;40825;52.270;20.984;2023-05-25T05:15:03;30.10;;;18.30;;
54923;SDS011;40825;52.270;20.984;2023-05-25T05:17:29;31.70;;;16.90;;
54923;SDS011;40825;52.270;20.984;2023-05-25T05:19:55;32.00;;;17.60;;
54923;SDS011;40825;52.270;20.984;2023-05-25T05:22:21;31.40;;;18.10;;
54923;SDS011;40825;52.270;20.984;2023-05-25T05:24:46;32.20;;;18.80;;
54923;SDS011;40825;52.270;20.984;2023-05-25T05:27:14;30.30;;;16.50;;
54923;SDS011;40825;52.270;20.984;2023-05-25T05:29:41;30.40;;;16.30;;
54923;SDS011;40825;52.270;20.984;2023-05-25T05:32:07;31.20;;;17.20;;
54923;SDS011;40825;52.270;20.984;2023-05-25T05:34:33;31.00;;;16.60;;
54923;SDS011;40825;52.270;20.984;2023-05-25T05:36:58;29.50;;;17.00;;
54923;SDS011;40825;52.270;20.984;2023-05-25T05:39:27;29.40;;;16.50;;
54923;SDS011;40825;52.270;20.984;2023-05-25T05:41:53;29.60;;;16.40;;
54923;SDS011;40825;52.270;20.984;2023-05-25T05:44:22;28.20;;;16.00;;
54923;SDS011;40825;52.270;20.984;2023-05-25T05:46:48;30.50;;;16.00;;
54923;SDS011;40825;52.270;20.984;2023-05-25T05:49:13;32.20;;;17.00;;
54923;SDS011;40825;52.270;20.984;2023-05-25T05:51:39;31.70;;;18.20;;
54923;SDS011;40825;52.270;20.984;2023-05-25T05:54:05;28.90;;;17.10;;
54923;SDS011;40825;52.270;20.984;2023-05-25T05:56:30;30.10;;;17.00;;
54923;SDS011;40825;52.270;20.984;2023-05-25T05:58:56;31.60;;;17.60;;
54923;SDS011;40825;52.270;20.984;2023-05-25T06:01:21;29.90;;;16.10;;
54923;SDS011;40825;52.270;20.984;2023-05-25T06:03:47;30.80;;;16.50;;
54923;SDS011;40825;52.270;20.984;2023-05-25T06:06:14;32.30;;;17.30;;
54923;SDS011;40825;52.270;20.984;2023-05-25T06:08:40;35.40;;;20.60;;
54923;SDS011;40825;52.270;20.984;2023-05-25T06:11:07;39.40;;;26.20;;
54923;SDS011;40825;52.270;20.984;2023-05-25T06:13:32;222.40;;;78.90;;
54923;SDS011;40825;52.270;20.984;2023-05-25T06:15:57;45.00;;;23.20;;
54923;SDS011;40825;52.270;20.984;2023-05-25T06:18:23;38.00;;;21.60;;
54923;SDS011;40825;52.270;20.984;2023-05-25T06:20:48;31.40;;;18.50;;
54923;SDS011;40825;52.270;20.984;2023-05-25T06:23:14;50.20;;;29.50;;
54923;SDS011;40825;52.270;20.984;2023-05-25T06:25:41;43.10;;;28.40;;
54923;SDS011;40825;52.270;20.984;2023-05-25T06:28:07;49.20;;;34.20;;
54923;SDS011;40825;52.270;20.984;2023-05-25T06:30:32;34.70;;;23.80;;
54923;SDS011;40825;52.270;20.984;2023-05-25T06:32:58;36.40;;;21.70;;
54923;SDS011;40825;52.270;20.984;2023-05-25T06:35:23;31.40;;;18.10;;
54923;SDS011;40825;52.270;20.984;2023-05-25T06:37:49;36.60;;;19.00;;
54923;SDS011;40825;52.270;20.984;2023-05-25T06:40:15;40.60;;;20.10;;
54923;SDS011;40825;52.270;20.984;2023-05-25T06:42:41;30.90;;;17.90;;
54923;SDS011;40825;52.270;20.984;2023-05-25T06:45:07;32.20;;;16.60;;
54923;SDS011;40825;52.270;20.984;2023-05-25T06:47:33;35.70;;;19.60;;
54923;SDS011;40825;52.270;20.984;2023-05-25T06:49:59;37.20;;;20.80;;
54923;SDS011;40825;52.270;20.984;2023-05-25T06:52:25;33.80;;;18.40;;
54923;SDS011;40825;52.270;20.984;2023-05-25T06:54:56;34.60;;;17.50;;
54923;SDS011;40825;52.270;20.984;2023-05-25T06:57:22;30.50;;;18.80;;
54923;SDS011;40825;52.270;20.984;2023-05-25T06:59:48;33.90;;;17.70;;
54923;SDS011;40825;52.270;20.984;2023-05-25T07:02:14;32.30;;;17.60;;
54923;SDS011;40825;52.270;20.984;2023-05-25T07:04:39;36.20;;;19.10;;
54923;SDS011;40825;52.270;20.984;2023-05-25T07:07:05;28.90;;;16.30;;
54923;SDS011;40825;52.270;20.984;2023-05-25T07:09:31;30.90;;;17.40;;
54923;SDS011;40825;52.270;20.984;2023-05-25T07:11:57;30.60;;;16.30;;
54923;SDS011;40825;52.270;20.984;2023-05-25T07:14:22;33.30;;;17.10;;
54923;SDS011;40825;52.270;20.984;2023-05-25T07:16:48;32.70;;;17.70;;
54923;SDS011;40825;52.270;20.984;2023-05-25T07:19:14;37.40;;;18.80;;
54923;SDS011;40825;52.270;20.984;2023-05-25T07:21:40;31.30;;;17.10;;
54923;SDS011;40825;52.270;20.984;2023-05-25T07:24:05;29.60;;;16.70;;
54923;SDS011;40825;52.270;20.984;2023-05-25T07:26:31;30.70;;;18.10;;
54923;SDS011;40825;52.270;20.984;2023-05-25T07:28:58;29.90;;;18.50;;
54923;SDS011;40825;52.270;20.984;2023-05-25T07:31:24;32.20;;;16.70;;
54923;SDS011;40825;52.270;20.984;2023-05-25T07:33:50;33.10;;;18.30;;
54923;SDS011;40825;52.270;20.984;2023-05-25T07:36:15;32.00;;;18.90;;
54923;SDS011;40825;52.270;20.984;2023-05-25T07:38:41;32.70;;;18.10;;
54923;SDS011;40825;52.270;20.984;2023-05-25T07:41:07;37.20;;;20.60;;
54923;SDS011;40825;52.270;20.984;2023-05-25T07:43:32;36.60;;;21.00;;
54923;SDS011;40825;52.270;20.984;2023-05-25T07:45:58;58.30;;;38.50;;
54923;SDS011;40825;52.270;20.984;2023-05-25T07:48:27;73.90;;;57.30;;
54923;SDS011;40825;52.270;20.984;2023-05-25T07:50:52;43.20;;;31.80;;
54923;SDS011;40825;52.270;20.984;2023-05-25T07:53:18;32.40;;;20.40;;
54923;SDS011;40825;52.270;20.984;2023-05-25T07:55:44;28.10;;;16.50;;
54923;SDS011;40825;52.270;20.984;2023-05-25T07:58:09;27.00;;;16.90;;
54923;SDS011;40825;52.270;20.984;2023-05-25T08:00:35;25.60;;;16.60;;
54923;SDS011;40825;52.270;20.984;2023-05-25T08:03:01;35.20;;;19.40;;
54923;SDS011;40825;52.270;20.984;2023-05-25T08:05:26;30.30;;;17.10;;
54923;SDS011;40825;52.270;20.984;2023-05-25T08:07:52;30.20;;;18.30;;
54923;SDS011;40825;52.270;20.984;2023-05-25T08:10:18;30.50;;;17.50;;
54923;SDS011;40825;52.270;20.984;2023-05-25T08:12:45;28.70;;;17.70;;
54923;SDS011;40825;52.270;20.984;2023-05-25T08:15:10;29.30;;;16.60;;
54923;SDS011;40825;52.270;20.984;2023-05-25T08:17:37;27.20;;;16.70;;
54923;SDS011;40825;52.270;20.984;2023-05-25T08:20:04;27.70;;;16.10;;
54923;SDS011;40825;52.270;20.984;2023-05-25T08:22:32;27.00;;;17.10;;
54923;SDS011;40825;52.270;20.984;2023-05-25T08:24:58;25.90;;;16.50;;
54923;SDS011;40825;52.270;20.984;2023-05-25T08:27:23;26.50;;;15.80;;
54923;SDS011;40825;52.270;20.984;2023-05-25T08:29:49;26.60;;;16.50;;
54923;SDS011;40825;52.270;20.984;2023-05-25T08:32:14;25.50;;;15.90;;
54923;SDS011;40825;52.270;20.984;2023-05-25T08:34:40;24.10;;;15.60;;
54923;SDS011;40825;52.270;20.984;2023-05-25T08:37:05;24.90;;;16.10;;
54923;SDS011;40825;52.270;20.984;2023-05-25T08:39:31;25.80;;;15.50;;
54923;SDS011;40825;52.270;20.984;2023-05-25T08:41:56;27.70;;;18.20;;
54923;SDS011;40825;52.270;20.984;2023-05-25T08:44:21;24.80;;;14.90;;
54923;SDS011;40825;52.270;20.984;2023-05-25T08:46:48;23.80;;;15.90;;
54923;SDS011;40825;52.270;20.984;2023-05-25T08:49:14;23.00;;;15.30;;
54923;SDS011;40825;52.270;20.984;2023-05-25T08:54:18;22.90;;;14.40;;
54923;SDS011;40825;52.270;20.984;2023-05-25T09:02:32;21.90;;;13.60;;
54923;SDS011;40825;52.270;20.984;2023-05-25T09:05:03;20.60;;;15.00;;
54923;SDS011;40825;52.270;20.984;2023-05-25T09:07:29;21.40;;;14.20;;
54923;SDS011;40825;52.270;20.984;2023-05-25T09:09:56;18.80;;;13.70;;
54923;SDS011;40825;52.270;20.984;2023-05-25T09:12:22;23.50;;;14.50;;
54923;SDS011;40825;52.270;20.984;2023-05-25T09:14:48;21.80;;;15.20;;
54923;SDS011;40825;52.270;20.984;2023-05-25T09:17:14;20.60;;;14.10;;
54923;SDS011;40825;52.270;20.984;2023-05-25T09:19:41;21.80;;;15.70;;
54923;SDS011;40825;52.270;20.984;2023-05-25T09:22:08;20.00;;;13.70;;
54923;SDS011;40825;52.270;20.984;2023-05-25T09:24:36;21.70;;;14.70;;
54923;SDS011;40825;52.270;20.984;2023-05-25T09:27:05;20.90;;;15.00;;
54923;SDS011;40825;52.270;20.984;2023-05-25T09:29:35;20.00;;;15.00;;
54923;SDS011;40825;52.270;20.984;2023-05-25T09:32:03;20.50;;;14.40;;
54923;SDS011;40825;52.270;20.984;2023-05-25T09:34:31;20.40;;;13.80;;
54923;SDS011;40825;52.270;20.984;2023-05-25T09:36:58;21.20;;;15.00;;
54923;SDS011;40825;52.270;20.984;2023-05-25T09:39:24;19.20;;;13.40;;
54923;SDS011;40825;52.270;20.984;2023-05-25T09:41:50;19.30;;;14.40;;
54923;SDS011;40825;52.270;20.984;2023-05-25T09:44:15;21.50;;;14.70;;
54923;SDS011;40825;52.270;20.984;2023-05-25T09:46:40;21.80;;;15.20;;
54923;SDS011;40825;52.270;20.984;2023-05-25T09:49:08;20.80;;;14.60;;
54923;SDS011;40825;52.270;20.984;2023-05-25T09:51:36;30.80;;;19.10;;
54923;SDS011;40825;52.270;20.984;2023-05-25T09:54:03;24.20;;;16.00;;
54923;SDS011;40825;52.270;20.984;2023-05-25T09:56:32;20.50;;;15.30;;
54923;SDS011;40825;52.270;20.984;2023-05-25T09:58:58;17.50;;;13.20;;
54923;SDS011;40825;52.270;20.984;2023-05-25T10:01:25;18.00;;;13.80;;
54923;SDS011;40825;52.270;20.984;2023-05-25T10:03:54;21.00;;;15.80;;
54923;SDS011;40825;52.270;20.984;2023-05-25T10:06:24;20.90;;;14.70;;
54923;SDS011;40825;52.270;20.984;2023-05-25T10:08:50;20.60;;;14.60;;
54923;SDS011;40825;52.270;20.984;2023-05-25T10:11:18;19.30;;;13.90;;
54923;SDS011;40825;52.270;20.984;2023-05-25T10:13:46;20.90;;;14.70;;
54923;SDS011;40825;52.270;20.984;2023-05-25T10:16:14;17.60;;;13.20;;
54923;SDS011;40825;52.270;20.984;2023-05-25T10:18:47;20.20;;;15.60;;
54923;SDS011;40825;52.270;20.984;2023-05-25T10:21:16;23.10;;;15.40;;
54923;SDS011;40825;52.270;20.984;2023-05-25T10:23:44;20.20;;;13.60;;
54923;SDS011;40825;52.270;20.984;2023-05-25T10:26:15;27.70;;;18.30;;
54923;SDS011;40825;52.270;20.984;2023-05-25T10:28:44;34.40;;;22.00;;
54923;SDS011;40825;52.270;20.984;2023-05-25T10:31:14;25.30;;;17.80;;
54923;SDS011;40825;52.270;20.984;2023-05-25T10:33:41;23.00;;;15.60;;
54923;SDS011;40825;52.270;20.984;2023-05-25T10:36:08;23.10;;;15.30;;
54923;SDS011;40825;52.270;20.984;2023-05-25T10:38:40;20.80;;;13.70;;
54923;SDS011;40825;52.270;20.984;2023-05-25T10:41:09;20.40;;;15.70;;
54923;SDS011;40825;52.270;20.984;2023-05-25T10:43:36;19.80;;;14.20;;
54923;SDS011;40825;52.270;20.984;2023-05-25T10:46:05;18.90;;;13.10;;
54923;SDS011;40825;52.270;20.984;2023-05-25T10:48:38;18.70;;;13.00;;
54923;SDS011;40825;52.270;20.984;2023-05-25T10:51:04;18.70;;;12.10;;
54923;SDS011;40825;52.270;20.984;2023-05-25T10:53:31;20.60;;;13.50;;
54923;SDS011;40825;52.270;20.984;2023-05-25T10:56:00;19.30;;;13.30;;
54923;SDS011;40825;52.270;20.984;2023-05-25T10:58:27;17.50;;;12.30;;
54923;SDS011;40825;52.270;20.984;2023-05-25T11:06:17;17.40;;;12.10;;
54923;SDS011;40825;52.270;20.984;2023-05-25T11:11:21;20.60;;;11.50;;
54923;SDS011;40825;52.270;20.984;2023-05-25T11:22:18;19.70;;;13.90;;
54923;SDS011;40825;52.270;20.984;2023-05-25T11:24:45;18.50;;;12.00;;
54923;SDS011;40825;52.270;20.984;2023-05-25T11:27:12;18.30;;;11.80;;
54923;SDS011;40825;52.270;20.984;2023-05-25T11:29:38;16.70;;;11.20;;
54923;SDS011;40825;52.270;20.984;2023-05-25T11:32:10;22.00;;;13.00;;
54923;SDS011;40825;52.270;20.984;2023-05-25T11:34:40;19.70;;;12.60;;
54923;SDS011;40825;52.270;20.984;2023-05-25T11:37:17;21.10;;;11.20;;
54923;SDS011;40825;52.270;20.984;2023-05-25T11:39:49;17.30;;;11.60;;
54923;SDS011;40825;52.270;20.984;2023-05-25T11:42:16;16.80;;;11.30;;
54923;SDS011;40825;52.270;20.984;2023-05-25T11:44:43;17.40;;;10.90;;
54923;SDS011;40825;52.270;20.984;2023-05-25T11:47:09;18.50;;;13.40;;
54923;SDS011;40825;52.270;20.984;2023-05-25T11:49:39;16.70;;;10.20;;
54923;SDS011;40825;52.270;20.984;2023-05-25T11:52:14;15.90;;;10.70;;
54923;SDS011;40825;52.270;20.984;2023-05-25T11:54:44;15.30;;;10.90;;
54923;SDS011;40825;52.270;20.984;2023-05-25T11:57:17;21.00;;;11.00;;
54923;SDS011;40825;52.270;20.984;2023-05-25T11:59:47;16.00;;;10.60;;
54923;SDS011;40825;52.270;20.984;2023-05-25T12:02:17;18.70;;;11.10;;
54923;SDS011;40825;52.270;20.984;2023-05-25T12:04:56;13.50;;;9.90;;
54923;SDS011;40825;52.270;20.984;2023-05-25T12:07:23;15.90;;;9.50;;
54923;SDS011;40825;52.270;20.984;2023-05-25T12:09:50;17.40;;;12.20;;
54923;SDS011;40825;52.270;20.984;2023-05-25T12:12:16;16.80;;;11.00;;
54923;SDS011;40825;52.270;20.984;2023-05-25T12:14:49;13.50;;;11.80;;
54923;SDS011;40825;52.270;20.984;2023-05-25T12:17:16;16.50;;;10.70;;
54923;SDS011;40825;52.270;20.984;2023-05-25T12:19:42;17.20;;;11.10;;
54923;SDS011;40825;52.270;20.984;2023-05-25T12:22:09;15.00;;;10.20;;
54923;SDS011;40825;52.270;20.984;2023-05-25T12:24:36;14.40;;;10.60;;
54923;SDS011;40825;52.270;20.984;2023-05-25T12:27:01;14.70;;;11.40;;
54923;SDS011;40825;52.270;20.984;2023-05-25T12:29:30;16.90;;;10.00;;
54923;SDS011;40825;52.270;20.984;2023-05-25T12:32:02;16.30;;;10.40;;
54923;SDS011;40825;52.270;20.984;2023-05-25T12:36:55;14.00;;;10.00;;
54923;SDS011;40825;52.270;20.984;2023-05-25T12:46:53;12.60;;;10.10;;
54923;SDS011;40825;52.270;20.984;2023-05-25T12:51:59;14.20;;;9.70;;
54923;SDS011;40825;52.270;20.984;2023-05-25T12:54:45;15.30;;;10.60;;
54923;SDS011;40825;52.270;20.984;2023-05-25T12:57:11;14.90;;;9.30;;
54923;SDS011;40825;52.270;20.984;2023-05-25T12:59:42;13.30;;;9.70;;
54923;SDS011;40825;52.270;20.984;2023-05-25T13:02:10;15.00;;;9.30;;
54923;SDS011;40825;52.270;20.984;2023-05-25T13:04:37;13.20;;;8.60;;
54923;SDS011;40825;52.270;20.984;2023-05-25T13:07:04;12.20;;;9.10;;
54923;SDS011;40825;52.270;20.984;2023-05-25T13:09:32;12.70;;;8.80;;
54923;SDS011;40825;52.270;20.984;2023-05-25T13:11:59;11.30;;;7.80;;
54923;SDS011;40825;52.270;20.984;2023-05-25T13:14:26;12.60;;;8.50;;
54923;SDS011;40825;52.270;20.984;2023-05-25T13:16:52;11.80;;;7.80;;
54923;SDS011;40825;52.270;20.984;2023-05-25T13:19:19;14.00;;;9.00;;
54923;SDS011;40825;52.270;20.984;2023-05-25T13:21:46;11.10;;;9.10;;
54923;SDS011;40825;52.270;20.984;2023-05-25T13:24:13;13.60;;;10.50;;
54923;SDS011;40825;52.270;20.984;2023-05-25T13:26:41;10.90;;;7.70;;
54923;SDS011;40825;52.270;20.984;2023-05-25T13:29:08;11.70;;;8.20;;
54923;SDS011;40825;52.270;20.984;2023-05-25T13:31:33;11.60;;;8.60;;
54923;SDS011;40825;52.270;20.984;2023-05-25T13:33:58;11.90;;;8.60;;
54923;SDS011;40825;52.270;20.984;2023-05-25T13:36:24;13.60;;;8.70;;
54923;SDS011;40825;52.270;20.984;2023-05-25T13:38:50;12.00;;;7.90;;
54923;SDS011;40825;52.270;20.984;2023-05-25T13:41:15;12.40;;;7.80;;
54923;SDS011;40825;52.270;20.984;2023-05-25T13:43:42;12.80;;;8.30;;
54923;SDS011;40825;52.270;20.984;2023-05-25T13:46:07;11.20;;;8.00;;
54923;SDS011;40825;52.270;20.984;2023-05-25T13:48:33;10.70;;;8.20;;
54923;SDS011;40825;52.270;20.984;2023-05-25T13:50:58;10.90;;;8.50;;
54923;SDS011;40825;52.270;20.984;2023-05-25T13:53:24;13.90;;;8.40;;
54923;SDS011;40825;52.270;20.984;2023-05-25T13:55:50;12.50;;;8.00;;
54923;SDS011;40825;52.270;20.984;2023-05-25T13:58:15;9.80;;;8.00;;
54923;SDS011;40825;52.270;20.984;2023-05-25T14:00:41;11.50;;;8.80;;
54923;SDS011;40825;52.270;20.984;2023-05-25T14:03:07;13.10;;;9.10;;
54923;SDS011;40825;52.270;20.984;2023-05-25T14:05:32;13.60;;;8.40;;
54923;SDS011;40825;52.270;20.984;2023-05-25T14:07:58;12.40;;;7.90;;
54923;SDS011;40825;52.270;20.984;2023-05-25T14:10:26;15.40;;;9.10;;
54923;SDS011;40825;52.270;20.984;2023-05-25T14:12:52;12.30;;;8.80;;
54923;SDS011;40825;52.270;20.984;2023-05-25T14:15:18;14.20;;;10.50;;
54923;SDS011;40825;52.270;20.984;2023-05-25T14:17:43;13.00;;;8.80;;
54923;SDS011;40825;52.270;20.984;2023-05-25T14:20:09;13.30;;;9.70;;
54923;SDS011;40825;52.270;20.984;2023-05-25T14:22:35;12.90;;;10.60;;
54923;SDS011;40825;52.270;20.984;2023-05-25T14:25:01;13.90;;;9.30;;
54923;SDS011;40825;52.270;20.984;2023-05-25T14:27:26;13.40;;;9.60;;
54923;SDS011;40825;52.270;20.984;2023-05-25T14:29:52;13.90;;;10.20;;
54923;SDS011;40825;52.270;20.984;2023-05-25T14:32:17;14.30;;;9.80;;
54923;SDS011;40825;52.270;20.984;2023-05-25T14:34:43;14.40;;;9.50;;
54923;SDS011;40825;52.270;20.984;2023-05-25T14:37:10;14.80;;;10.30;;
54923;SDS011;40825;52.270;20.984;2023-05-25T14:39:36;13.20;;;8.20;;
54923;SDS011;40825;52.270;20.984;2023-05-25T14:42:02;12.30;;;9.90;;
54923;SDS011;40825;52.270;20.984;2023-05-25T14:44:28;15.30;;;9.40;;
54923;SDS011;40825;52.270;20.984;2023-05-25T14:46:54;11.30;;;8.70;;
54923;SDS011;40825;52.270;20.984;2023-05-25T14:49:20;11.90;;;8.30;;
54923;SDS011;40825;52.270;20.984;2023-05-25T14:51:52;13.70;;;8.50;;